createdAt,value
2022-10-23T07:41:17.199Z,100366.60
2022-10-23T07:46:20.654Z,100358.80
2022-10-23T07:51:24.062Z,100364.00
2022-10-23T07:56:32.187Z,100374.80
2022-10-23T08:01:39.166Z,100369.80
2022-10-23T08:06:42.810Z,100375.20
2022-10-23T08:11:46.217Z,100380.80
2022-10-23T08:16:49.590Z,100377.60
2022-10-23T08:21:55.013Z,100378.60
2022-10-23T08:26:59.017Z,100372.20
2022-10-23T08:32:02.534Z,100377.00
2022-10-23T08:37:06.001Z,100381.00
2022-10-23T08:42:21.346Z,100381.00
2022-10-23T08:47:43.189Z,100381.00
2022-10-23T08:52:46.632Z,100382.20
2022-10-23T08:58:06.298Z,100394.60
2022-10-23T09:03:12.788Z,100390.20
2022-10-23T09:08:27.975Z,100388.20
2022-10-23T09:14:18.905Z,100389.80
2022-10-23T09:19:28.214Z,100399.00
2022-10-23T09:24:33.725Z,100408.20
2022-10-23T09:29:37.050Z,100407.20
2022-10-23T09:34:53.649Z,100409.60
2022-10-23T09:40:30.021Z,100405.40
2022-10-23T09:45:35.716Z,100400.40
2022-10-23T09:50:55.108Z,100398.80
2022-10-23T09:56:08.188Z,100393.80
2022-10-23T10:01:48.171Z,100409.40
2022-10-23T10:06:59.642Z,100402.40
2022-10-23T10:12:47.671Z,100403.60
2022-10-23T10:18:38.671Z,100403.00
2022-10-23T10:23:56.142Z,100408.80
2022-10-23T10:29:19.416Z,100396.80
2022-10-23T10:35:03.488Z,100407.60
2022-10-23T10:40:31.533Z,100409.00
2022-10-23T10:45:49.025Z,100409.40
2022-10-23T10:51:06.162Z,100411.20
2022-10-23T10:56:16.242Z,100411.60
2022-10-23T11:02:00.238Z,100414.80
2022-10-23T11:07:11.705Z,100415.20
2022-10-23T11:12:28.436Z,100410.60
2022-10-23T11:17:41.101Z,100411.20
2022-10-23T11:23:02.802Z,100416.60
2022-10-23T11:28:43.796Z,100414.00
2022-10-23T11:34:32.285Z,100406.00
2022-10-23T11:39:39.900Z,100404.60
2022-10-23T11:44:50.903Z,100398.60
2022-10-23T11:50:09.367Z,100402.00
2022-10-23T11:55:24.596Z,100396.20
2022-10-23T12:00:31.048Z,100395.60
2022-10-23T12:05:41.864Z,100386.80
2022-10-23T12:10:53.059Z,100387.40
2022-10-23T12:15:59.941Z,100397.80
2022-10-23T12:21:05.473Z,100390.20
2022-10-23T12:26:30.067Z,100394.40
2022-10-23T12:31:47.818Z,100401.00
2022-10-23T12:37:32.789Z,100399.40
2022-10-23T12:42:38.166Z,100399.60
2022-10-23T12:47:45.470Z,100398.60
2022-10-23T12:53:04.653Z,100400.20
2022-10-23T12:58:34.174Z,100393.80
2022-10-23T13:03:39.525Z,100386.60
2022-10-23T13:08:47.826Z,100390.80
2022-10-23T13:13:51.383Z,100390.00
2022-10-23T13:18:55.023Z,100384.60
2022-10-23T13:23:58.622Z,100386.80
2022-10-23T13:29:08.870Z,100389.00
2022-10-23T13:34:28.646Z,100389.20
2022-10-23T13:39:34.338Z,100392.60
2022-10-23T13:44:38.342Z,100395.80
2022-10-23T13:49:41.819Z,100383.60
2022-10-23T13:54:45.137Z,100392.60
2022-10-23T13:59:48.541Z,100386.00
2022-10-23T14:04:52.862Z,100403.00
2022-10-23T14:09:56.137Z,100396.00
2022-10-23T14:14:59.395Z,100388.60
2022-10-23T14:20:06.106Z,100390.20
2022-10-23T14:25:10.258Z,100387.60
2022-10-23T14:30:14.682Z,100385.00
2022-10-23T14:35:18.056Z,100387.20
2022-10-23T14:40:21.886Z,100387.40
2022-10-23T14:45:25.165Z,100388.80
2022-10-23T14:50:28.738Z,100393.80
2022-10-23T14:55:32.035Z,100400.80
2022-10-23T15:00:35.300Z,100394.80
2022-10-23T15:05:43.150Z,100392.00
2022-10-23T15:10:46.692Z,100391.00
2022-10-23T15:15:50.179Z,100386.40
2022-10-23T15:20:53.802Z,100386.00
2022-10-23T15:26:03.458Z,100381.20
2022-10-23T15:31:06.822Z,100371.60
2022-10-23T15:36:10.125Z,100369.20
2022-10-23T15:41:22.807Z,100375.80
2022-10-23T15:46:26.440Z,100378.40
2022-10-23T15:51:29.739Z,100379.80
2022-10-23T15:56:34.600Z,100384.40
2022-10-23T16:01:38.137Z,100390.00
2022-10-23T16:06:42.649Z,100384.00
2022-10-23T16:11:45.960Z,100392.60
2022-10-23T16:16:49.274Z,100396.00
2022-10-23T16:21:52.582Z,100395.60
2022-10-23T16:26:57.839Z,100384.60
2022-10-23T16:32:01.187Z,100396.40
2022-10-23T16:37:04.564Z,100390.60
2022-10-23T16:42:08.025Z,100399.60
2022-10-23T16:47:11.392Z,100397.60
2022-10-23T16:52:14.911Z,100394.00
2022-10-23T16:57:18.207Z,100388.00
2022-10-23T17:02:21.689Z,100394.20
2022-10-23T17:07:25.247Z,100384.80
2022-10-23T17:12:28.660Z,100396.20
2022-10-23T17:17:31.915Z,100388.00
2022-10-23T17:22:36.215Z,100389.80
2022-10-23T17:27:39.507Z,100400.20
2022-10-23T17:32:43.053Z,100387.40
2022-10-23T17:37:46.568Z,100402.60
2022-10-23T17:42:49.871Z,100392.40
2022-10-23T17:47:53.593Z,100389.20
2022-10-23T17:52:56.846Z,100386.20
2022-10-23T17:58:00.398Z,100387.60
2022-10-23T18:03:05.332Z,100388.40
2022-10-23T18:08:08.676Z,100388.20
2022-10-23T18:13:12.001Z,100391.20
2022-10-23T18:18:15.357Z,100396.00
2022-10-23T18:23:18.718Z,100396.00
2022-10-23T18:28:22.579Z,100400.20
2022-10-23T18:33:26.798Z,100393.20
2022-10-23T18:38:33.257Z,100400.40
2022-10-23T18:43:43.785Z,100391.20
2022-10-23T18:48:51.040Z,100388.40
2022-10-23T18:53:54.781Z,100382.00
2022-10-23T18:59:02.066Z,100387.20
2022-10-23T19:04:06.023Z,100385.20
2022-10-23T19:09:12.346Z,100389.80
2022-10-23T19:14:15.895Z,100385.80
2022-10-23T19:19:24.857Z,100380.60
2022-10-23T19:24:44.128Z,100398.80
2022-10-23T19:29:50.816Z,100381.00
2022-10-23T19:34:54.210Z,100369.80
2022-10-23T19:39:57.749Z,100368.60
2022-10-23T19:45:01.365Z,100364.00
2022-10-23T19:50:07.353Z,100373.40
2022-10-23T19:55:11.505Z,100367.40
2022-10-23T20:00:15.446Z,100368.80
2022-10-23T20:05:18.810Z,100367.80
2022-10-23T20:10:22.533Z,100368.00
2022-10-23T20:15:25.786Z,100365.00
2022-10-23T20:20:29.157Z,100354.20
2022-10-23T20:25:32.381Z,100354.40
2022-10-23T20:30:42.708Z,100357.60
2022-10-23T20:35:46.093Z,100355.80
2022-10-23T20:40:49.652Z,100346.40
2022-10-23T20:45:53.301Z,100341.00
2022-10-23T20:50:56.614Z,100344.60
2022-10-23T20:56:00.038Z,100344.40
2022-10-23T21:01:09.968Z,100349.80
2022-10-23T21:06:16.257Z,100350.20
2022-10-23T21:11:19.593Z,100348.40
2022-10-23T21:16:30.068Z,100348.80
2022-10-23T21:21:33.670Z,100352.60
2022-10-23T21:26:37.257Z,100356.00
2022-10-23T21:31:40.702Z,100361.20
2022-10-23T21:37:07.488Z,100356.40
2022-10-23T21:42:10.414Z,100361.20
2022-10-23T21:47:14.017Z,100358.40
2022-10-23T21:52:19.068Z,100347.20
2022-10-23T21:57:23.270Z,100352.80
2022-10-23T22:02:27.289Z,100351.80
2022-10-23T22:07:30.713Z,100349.20
2022-10-23T22:12:34.043Z,100349.00
2022-10-23T22:17:37.333Z,100340.20
2022-10-23T22:22:40.593Z,100347.20
2022-10-23T22:27:44.022Z,100348.00
2022-10-23T22:32:47.600Z,100342.00
2022-10-23T22:37:51.096Z,100349.40
2022-10-23T22:42:54.401Z,100340.40
2022-10-23T22:47:57.762Z,100344.40
2022-10-23T22:53:01.088Z,100338.60
2022-10-23T22:58:04.390Z,100356.60
2022-10-23T23:03:08.444Z,100354.60
2022-10-23T23:08:13.741Z,100357.20
2022-10-23T23:13:17.040Z,100353.80
2022-10-23T23:18:21.682Z,100358.40
2022-10-23T23:23:24.993Z,100348.20
2022-10-23T23:28:28.340Z,100336.60
2022-10-23T23:33:31.718Z,100337.20
2022-10-23T23:38:37.485Z,100312.00
2022-10-23T23:43:42.433Z,100301.20
2022-10-23T23:48:48.812Z,100310.40
2022-10-23T23:53:52.803Z,100302.60
2022-10-23T23:58:58.040Z,100307.00
